»·PEaware :: TEXAN33 KRND-KRND

TEXAN33 :: KRND-KRND

FLIGHT INFORMATION

Flight Status: Arrived
Operator: Unknown
More flights by this operator :: More flights under this callsign
Pilot: Indie I. (23354)
Aircraft: BEECH AIRCRAFT T-6A TEXAN
(TEX2)
More flights by this aircraft type
Origin: KRND Randolph AFB
United States
Destination: KRND Randolph AFB
United States
More flights between these airports :: More routes between these airports
Route:
File this flight plan on PilotEdge
Remarks:
Altitude:
(Current/Filed)
13,000ft
Speed:
(Current/Filed)
200kts
Departed: 14-Aug-20 11:40 AM
Arrived: 14-Aug-20 12:18 PM
Distance/Time
Traveled:
1nm/0:38
Distance/Time
To Go:
Arrived

Flight Plot

Page will automatically refresh every two minutes.

Flight plan parsing failed; only flown route is shown


Map Options




Map Legend


Flown Route
Filed Route
Departure Airport
Arrival Airport
Navaid (VOR, NDB)
Fix

Horizontal Profiles

Position Reports

Time Latitude Longitude Heading Altitude Ground
Speed
14-Aug-20 11:23 29.534625 -98.292989 150 765ft 0kts
14-Aug-20 11:24 29.534625 -98.292989 150 765ft 0kts
14-Aug-20 11:25 29.534756 -98.291561 149 766ft 0kts
14-Aug-20 11:26 29.534756 -98.291561 149 766ft 0kts
14-Aug-20 11:27 29.534756 -98.291561 149 766ft 0kts
14-Aug-20 11:28 29.534756 -98.291561 149 766ft 0kts
14-Aug-20 11:30 29.534756 -98.291561 149 766ft 0kts
14-Aug-20 11:31 29.534756 -98.291561 149 766ft 0kts
14-Aug-20 11:32 29.534756 -98.291561 149 766ft 0kts
14-Aug-20 11:33 29.534756 -98.291561 149 766ft 0kts
14-Aug-20 11:34 29.534756 -98.291561 149 766ft 0kts
14-Aug-20 11:35 29.534756 -98.291561 149 766ft 0kts
14-Aug-20 11:36 29.534754 -98.291560 149 765ft 0kts
14-Aug-20 11:37 29.534752 -98.291559 149 765ft 0kts
14-Aug-20 11:38 29.534450 -98.291877 271 765ft 0kts
14-Aug-20 11:39 29.530716 -98.290434 149 765ft 81kts
14-Aug-20 11:40 29.486946 -98.263708 152 1889ft 225kts
14-Aug-20 11:41 29.448066 -98.275070 263 2299ft 205kts
14-Aug-20 11:42 29.494965 -98.303877 330 1818ft 225kts
14-Aug-20 11:43 29.548614 -98.339123 332 1789ft 221kts
14-Aug-20 11:44 29.548744 -98.302122 146 1823ft 213kts
14-Aug-20 11:45 29.534164 -98.306519 334 1808ft 137kts
14-Aug-20 11:46 29.526367 -98.287655 149 824ft 144kts
14-Aug-20 11:47 29.485571 -98.294691 251 2457ft 224kts
14-Aug-20 11:48 29.532784 -98.331810 328 1706ft 233kts
14-Aug-20 11:49 29.585207 -98.359701 48 1583ft 174kts
14-Aug-20 11:50 29.573835 -98.318772 149 1174ft 143kts
14-Aug-20 11:51 29.543811 -98.299150 149 840ft 110kts
14-Aug-20 11:52 29.514681 -98.279957 150 1188ft 179kts
14-Aug-20 11:53 29.500435 -98.308438 347 1731ft 219kts
14-Aug-20 11:54 29.552997 -98.342558 328 1925ft 214kts
14-Aug-20 11:55 29.589407 -98.341623 118 1368ft 164kts
14-Aug-20 11:56 29.562678 -98.311385 150 1087ft 113kts
14-Aug-20 11:57 29.536160 -98.294111 150 783ft 108kts
14-Aug-20 11:58 29.502950 -98.274093 173 1824ft 198kts
14-Aug-20 11:59 29.514258 -98.319254 330 1866ft 214kts
14-Aug-20 12:00 29.565147 -98.333245 57 1829ft 218kts
14-Aug-20 12:01 29.527266 -98.288006 149 1730ft 222kts
14-Aug-20 12:02 29.492715 -98.304058 324 1733ft 213kts
14-Aug-20 12:03 29.544577 -98.338325 330 1802ft 219kts
14-Aug-20 12:04 29.548947 -98.302223 146 1787ft 211kts
14-Aug-20 12:05 29.532428 -98.308642 331 1776ft 143kts
14-Aug-20 12:06 29.532200 -98.291550 151 778ft 119kts
14-Aug-20 12:07 29.513557 -98.295060 328 1929ft 197kts
14-Aug-20 12:08 29.543056 -98.299614 112 1029ft 122kts
14-Aug-20 12:09 29.506778 -98.275245 149 1595ft 205kts
14-Aug-20 12:11 29.503261 -98.315427 339 1804ft 214kts
14-Aug-20 12:12 29.556867 -98.344885 326 1753ft 205kts
14-Aug-20 12:13 29.589955 -98.341496 97 1438ft 157kts
14-Aug-20 12:14 29.560328 -98.309961 148 1020ft 129kts
14-Aug-20 12:15 29.528860 -98.289325 149 967ft 201kts
14-Aug-20 12:16 29.534978 -98.309352 336 1699ft 157kts
14-Aug-20 12:17 29.530714 -98.290388 150 765ft 85kts
14-Aug-20 12:18 29.526722 -98.286633 61 765ft 0kts
14-Aug-20 12:19 29.526724 -98.286630 61 765ft 0kts
14-Aug-20 12:20 29.534817 -98.291783 160 766ft 0kts
14-Aug-20 12:21 29.534817 -98.291783 160 766ft 0kts
14-Aug-20 12:22 29.534817 -98.291783 160 766ft 0kts
14-Aug-20 12:23 29.534817 -98.291783 160 766ft 0kts
14-Aug-20 12:24 29.534817 -98.291783 160 766ft 0kts
14-Aug-20 12:25 29.534815 -98.291783 160 765ft 0kts
14-Aug-20 12:26 29.534813 -98.291782 160 765ft 0kts
14-Aug-20 12:27 29.534770 -98.291761 155 765ft 0kts
14-Aug-20 12:28 29.534768 -98.291760 155 765ft 0kts
14-Aug-20 12:28 29.534766 -98.291759 155 765ft 0kts
14-Aug-20 12:30 29.534764 -98.291758 155 765ft 0kts
14-Aug-20 12:31 29.534594 -98.291922 255 765ft 0kts
14-Aug-20 12:32 29.534647 -98.291704 248 765ft 0kts

Navigation Log

Ident Type
Flight plan parsing failed, navigation log unavailable